Thiago Barrios

Chief Scout - River Plate
6 Aug 2028
Sunday
Process

Personality

Adaptability (10) Ambition (9) Controversy (18) Loyalty (9) Pressure (11) Professionalism (1) Sportsmanship (14) Temperament (13)

Profile

Coaching Style Democratic
License Continental B
Determination 7
Man Management 12
Motivating 10
Discipline 6
Job Satisfaction
100%
Fatigue
0%
Role Chief Scout
Wage 69.1K p/w
Contract 14.03.2029

Performance

Behaviour Good
Training Effectiveness
45%
Player Development
50%
Injury Prevention
50%
Tactical Implementation
55%

Recent Events

Attended a recruitment meeting now
Recommended a transfer target now
Attended a recruitment meeting 7d ago
Recommended a transfer target 7d ago
Recommended a transfer target 7d ago
Recommended a transfer target 7d ago
Recommended a transfer target 14d ago
Recommended a transfer target 14d ago

Currently Monitoring

349
Player Club Status Ability Confidence Watched Last Observed Latest Vote
Diego Méndez Tacuarembo Active 99 / 99 30% 1 / 1m 26.07.2028 -
Francisco Machis Llaneros Active 89 / 91 40% 1 19.06.2028 -
Christos Mouzakitis Hull City Active 137 / 152 40% 1 19.06.2028 -
Luca Meirelles Kudrivka Active 126 / 120 40% 2 01.06.2028 -
Igor Tyjon Barrow AFC Active 115 / 133 40% 2 01.06.2028 -
Faustino Fernández Colon Negotiating 88 / 102 62% 1 01.06.2028 Approve
Prince Ating Adana Demirspor Active 91 / 89 40% 1 31.05.2028 -
Dmitry Nikitin Baltika Active 89 / 107 40% 1 31.05.2028 -
Honest Ahanor Atalanta Active 132 / 149 40% 3 30.05.2028 -
Neco Williams Wrexham Active 163 / 144 40% 1 29.05.2028 -
Tyreece Campbell Charlton Athletic Active 114 / 110 40% 10 28.05.2028 -
Felipe Varela Trujillanos Active 86 / 99 40% 1 27.05.2028 -
Rocco Vata Watford Active 120 / 118 40% 6 26.05.2028 -
Ante Crnac Bristol Rovers Active 139 / 114 40% 6 26.05.2028 -
Mohamadou Kanté Crawley Town Active 118 / 113 40% 1 26.05.2028 -
Kaye Furo Reading Active 135 / 114 40% 2 24.05.2028 -
Justin Obikwu Queens Park Rangers Active 116 / 102 40% 1 24.05.2028 -
Ben Ahmed Kohili Paradou Active 103 / 114 40% 2 23.05.2028 -
Babis Kostoulas Oxford United Active 155 / 159 40% 1 23.05.2028 -
Abubakar Adams Aduana Stars Active 76 / 91 40% 1 22.05.2028 -
Alessio Insignito Spezia Active 92 / 97 40% 1 22.05.2028 -
Jon Balda Real Sociedad Active 134 / 121 40% 2 21.05.2028 -
Samuel Edozie Southampton Active 137 / 120 40% 1 21.05.2028 -
Paddy Lane Reading Active 125 / 104 40% 3 20.05.2028 -
Mathias Kvistgaarden Norwich City Active 137 / 113 40% 5 19.05.2028 -
Ben Gannon Doak Charlton Athletic Active 138 / 158 40% 2 19.05.2028 -
Jayden Danns Bradford City Active 141 / 140 40% 5 18.05.2028 -
Jamie Donley West Bromwich Albion Active 134 / 117 40% 1 18.05.2028 -
Luca Williams-Barnett Walsall Active 110 / 136 40% 6 17.05.2028 -
Lucas Ramírez Tacuarembo Active 85 / 88 42% 1 / 1m 17.05.2028 -
Fodé Doumbouya Rampla Juniors Active 86 / 91 52% 1 / 1m 17.05.2028 -
Joaquín Muñoz Rampla Juniors Active 91 / 94 30% 1 / 1m 17.05.2028 -
Matías Jaime Rampla Juniors Active 83 / 86 30% 1 / 1m 17.05.2028 -
Derensili Sanches Fernandes Huddersfield Town Active 129 / 131 40% 4 16.05.2028 -
Lazar Samardžić Cagliari Active 162 / 161 40% 1 16.05.2028 -
Herculano Nabian Empoli Active 116 / 111 40% 1 16.05.2028 -
Alieu Njie Torino Active 130 / 137 40% 1 16.05.2028 -
Ryan Kavuma-McQueen Accrington Stanley Active 124 / 119 40% 2 12.05.2028 -
Sonny Carey Charlton Athletic Active 117 / 113 40% 2 12.05.2028 -
Derry Murkin Derby County Active 121 / 144 40% 2 11.05.2028 -
Simone Suppa Virtus Verona Active 83 / 103 40% 1 11.05.2028 -
Yasin Ayari Middlesbrough Active 154 / 161 40% 1 11.05.2028 -
Andre Brooks Sheffield United Active 144 / 144 40% 3 10.05.2028 -
Brandon Thomas-Asante Blackpool Active 124 / 115 40% 3 10.05.2028 -
Adnan Nainggolan KV Oostende Active 117 / 103 40% 3 09.05.2028 -
Augustus Kargbo Blackburn Rovers Active 111 / 123 40% 1 09.05.2028 -
Inti Borghetto Patronato Active 97 / 101 40% 1 09.05.2028 -
Jon Eceizabarrena Real Sociedad Active 95 / 116 40% 2 08.05.2028 -
Daniel Kyerewaa Reading Active 127 / 107 40% 7 08.05.2028 -
Jorge Cabezas Hurtado Watford Active 115 / 121 40% 1 08.05.2028 -
Harry Leonard Rukh Active 110 / 110 40% 1 08.05.2028 -
Stiven Shpendi Empoli Active 133 / 130 40% 4 06.05.2028 -
William Osula Wrexham Active 141 / 132 40% 3 06.05.2028 -
Matteo Ruggeri Middlesbrough Active 159 / 168 40% 1 06.05.2028 -
Jaidon Anthony Derby County Active 133 / 127 40% 1 05.05.2028 -
Matteo Prati Cagliari Active 138 / 135 40% 2 02.05.2028 -
Ángel Aguayo Sol de America Active 104 / 94 40% 2 02.05.2028 -
Camillo Tavernelli Arezzo Active 133 / 126 40% 1 29.04.2028 -
Jorthy Mokio ADO Den Haag Active 120 / 131 40% 2 28.04.2028 -
Kwesi Sorotu Badori Berekum Chelsea Active 85 / 91 40% 1 28.04.2028 -
Enrique Clemente Las Palmas Active 139 / 136 40% 2 22.04.2028 -
Joel Ezra Enyimba Active 99 / 89 40% 2 21.04.2028 -
Noahkai Banks FC Augsburg Active 134 / 136 40% 1 21.04.2028 -
Eli Junior Kroupi Bournemouth Active 153 / 162 40% 2 19.04.2028 -
Yevhenii Pastukh Kryvbas Active 131 / 116 40% 2 19.04.2028 -
Marcus Tavernier Bournemouth Active 144 / 151 40% 2 19.04.2028 -
Malcolm Ebiowei Gillingham Active 108 / 110 40% 1 19.04.2028 -
Yehor Hunichev Feniks Active 105 / 101 40% 1 18.04.2028 -
Louis Flower Crawley Town Active 98 / 97 40% 2 15.04.2028 -
Calvin Ramsay Bristol Rovers Active 138 / 111 40% 1 13.04.2028 -
Odel Offiah Shrewsbury Town Active 143 / 130 40% 1 13.04.2028 -
Jay Stansfield Birmingham Active 126 / 131 40% 1 12.04.2028 -
Miro Arsenal Tula Active 114 / 127 40% 1 10.04.2028 -
Wandile Duba ASO Chlef Active 117 / 107 40% 5 09.04.2028 -
Mohamed Touré Cardiff City Active 112 / 117 40% 1 09.04.2028 -
Trey Nyoni Rotherham United Active 145 / 138 40% 1 07.04.2028 -
Shea Charles Southampton Active 143 / 147 40% 1 06.04.2028 -
Adrià Altimira Deportivo La Coruña Active 150 / 130 40% 1 06.04.2028 -
Josh Stokes Bristol City Active 117 / 127 40% 1 06.04.2028 -
Albert Amoah Wa All Stars Active 99 / 110 40% 1 06.04.2028 -
Carlos Alcaraz Stoke City Active 148 / 150 40% 2 03.04.2028 -
Amine Boukamir Charleroi Active 109 / 112 40% 2 03.04.2028 -
Martim Cunha Porto Active 94 / 110 40% 2 03.04.2028 -
Leo Castledine Middlesbrough Active 133 / 128 40% 3 02.04.2028 -
Jhon Solís Birmingham Active 137 / 144 40% 1 02.04.2028 -
Andrey Ivlev Nizhniy Novgorod Active 103 / 113 40% 2 31.03.2028 -
Giovanni Leoni Lincoln City Active 140 / 132 40% 1 31.03.2028 -
Stanley Mills Crewe Alexandra Active 143 / 128 40% 2 29.03.2028 -
Halam Loboa Sevilla Active 124 / 141 40% 1 29.03.2028 -
Joshua Ajala Walsall Active 106 / 93 40% 1 28.03.2028 -
Nicolas Sport Recife Active 98 / 105 40% 1 27.03.2028 -
Gael Moreno Morelia Active 75 / 74 40% 1 26.03.2028 -
Vitaly Janelt Derby County Active 152 / 136 40% 2 25.03.2028 -
Sebastiano Esposito Cagliari Active 145 / 145 40% 2 24.03.2028 -
Itumeleng Jali Spezia Active 118 / 110 40% 1 23.03.2028 -
Archie Gray Southampton Active 153 / 167 40% 1 21.03.2028 -
Seb Ferdinand Rotherham United Active 123 / 128 40% 1 18.03.2028 -
Kyrell Lisbie Peterborough United Active 98 / 106 40% 1 17.03.2028 -
Alessandro Seghetti Campobasso Active 117 / 126 40% 1 16.03.2028 -
Musa Barrow ES Setif Active 129 / 143 40% 4 13.03.2028 -
Bernardo Lima Porto Active 115 / 129 40% 1 13.03.2028 -
Mirza Ćatović VfB Stuttgart Active 109 / 140 40% 1 13.03.2028 -
Tyrese Campbell Sheffield United Active 134 / 143 40% 3 09.03.2028 -
Kasey McAteer Barnsley Active 123 / 148 40% 2 09.03.2028 -
Johnny Kenny Preston Active 108 / 136 40% 1 02.03.2028 -
Jayden Addai Bari Active 143 / 154 40% 1 28.02.2028 -
Jayden Bogle Leeds United Active 154 / 148 40% 1 26.02.2028 -
Kevin Medina Mirandés Active 136 / 135 40% 1 22.02.2028 -
Callum Brittain Middlesbrough Active 136 / 130 40% 1 21.02.2028 -
Kwame Poku Queens Park Rangers Active 126 / 139 40% 1 17.02.2028 -
Abdoul Ouattara Port Vale Active 149 / 134 40% 1 15.02.2028 -
Luis Rodriguez Valur Active 135 / 121 40% 1 09.02.2028 -
Dato Mchedlidze Tskhinvali Active 118 / 107 40% 2 08.02.2028 -
Iván Pomba Sheffield Wednesday Active 104 / 99 40% 1 08.02.2028 -
Sorba Thomas Stoke City Active 126 / 146 40% 1 08.02.2028 -
Harvey Blair Portsmouth Active 129 / 127 40% 1 08.02.2028 -
Daniel Banjaqui Benfica Active 120 / 124 40% 1 08.02.2028 -
Franco Nicola Liverpool Montevideo Active 127 / 116 40% 1 05.02.2028 -
Giorgi Arabidze Torpedo Kutaisi Active 131 / 104 40% 1 03.02.2028 -
Tiago Pucciarelli IF Elfsborg Active 106 / 94 40% 3 02.02.2028 -
Agustín Alaniz Rentistas Active 108 / 108 40% 1 02.02.2028 -
Martín Campos Ferro Carril Oeste Active 128 / 114 40% 2 30.01.2028 -
Diego Gaitán Maipú Active 116 / 120 40% 3 29.01.2028 -
Alexander Díaz Deportivo Riestra Active 121 / 127 40% 1 29.01.2028 -
Bautista Carboni Defensores Unidos Active 100 / 108 40% 3 28.01.2028 -
Santiago Sala Güemes Active 106 / 115 40% 1 28.01.2028 -
Bruno Leyes Godoy Cruz Active 127 / 121 40% 3 25.01.2028 -
Tomás Ferreyra Defensores Unidos Active 105 / 108 40% 1 25.01.2028 -
Franco Vedoya Central Norte Active 117 / 117 40% 2 24.01.2028 -
Brian Farioli Estudiantes Active 113 / 106 40% 2 24.01.2028 -
Matías Rosales Sarmiento Active 110 / 115 40% 2 23.01.2028 -
Juan Bisanz Huracán Active 135 / 137 40% 1 23.01.2028 -
Franco Ayunta Temperley Active 120 / 101 40% 1 22.01.2028 -
Joaquín Gho Argentinos Juniors Active 119 / 134 40% 1 20.01.2028 -
Augusto Berrondo Tristán Suárez Active 102 / 113 40% 1 19.01.2028 -
Tomás Fernández Aldosivi Active 114 / 125 40% 1 18.01.2028 -
David Veliz Güemes Active 117 / 110 40% 1 18.01.2028 -
Marco Miori Alvarado Active 120 / 106 40% 1 18.01.2028 -
Malik Mothersille Stockport County Active 121 / 123 40% 3 17.01.2028 -
Rafael Moreno Atletico Venezuela Active 120 / 105 40% 3 17.01.2028 -
Federico Versaci Talleres Active 104 / 113 40% 1 15.01.2028 -
Ramón González Almirante Brown Active 121 / 119 40% 1 15.01.2028 -
Iñaki Larthirigoyen San Telmo Active 112 / 121 40% 1 14.01.2028 -
Manuel Duarte Barracas Central Active 114 / 125 40% 2 11.01.2028 -
Enzo Cabrera Danubio Active 103 / 124 40% 1 10.01.2028 -
Matías Contrera Hrvatski Dragovoljac Active 97 / 109 40% 1 10.01.2028 -
Alex Luna Instituto Active 124 / 139 40% 1 08.01.2028 -
Federico Bisanz Atlanta Active 110 / 108 40% 1 08.01.2028 -
Facundo Taborda Racing Active 117 / 102 40% 1 04.01.2028 -
Julián Bragado Morón Active 90 / 100 40% 2 20.12.2027 -
Kabiru Abdullahi Barau Active 103 / 103 40% 1 20.12.2027 -
Tyler Fletcher Rotherham United Active 104 / 110 40% 1 14.12.2027 -
Santiago Colidio Liepaja Active 94 / 90 40% 1 02.12.2027 -
Joelson Gamarra General Caballero Active 67 / 74 40% 1 02.12.2027 -
Umar Ada Nasarawa United Active 80 / 104 40% 1 01.12.2027 -
Maren Kefas Plateau United Active 102 / 88 40% 5 30.11.2027 -
Tosin Olawale El-Kanemi Warriors Active 106 / 90 40% 1 30.11.2027 -
Juan Camilo Córdoba Deportivo Pereira Active 96 / 101 40% 4 26.11.2027 -
Piero Cari Alianza Lima Active 104 / 104 40% 2 26.11.2027 -
Mateo Peralta Danubio Active 112 / 118 40% 2 23.11.2027 -
Joel Medina Independiente Active 107 / 129 40% 1 23.11.2027 -
Alejandro Almaraz NK Celje Active 108 / 129 40% 1 23.11.2027 -
Pedro Baltika Active 133 / 124 40% 1 21.11.2027 -
Tiago Gordillo San Miguel Active 94 / 104 40% 1 21.11.2027 -
Amaury Morales Leon Active 113 / 119 40% 1 19.11.2027 -
Victor Hernandez Santa Fe Active 124 / 127 40% 4 17.11.2027 -
Idris Ajiya Nasarawa United Active 88 / 91 40% 5 17.11.2027 -
Óscar Hinojosa Metropolitanos Active 78 / 89 40% 1 16.11.2027 -
Ruben Ramos LA Galaxy Active 95 / 99 40% 2 13.11.2027 -
Chimobi Igwilo Rangers International Active 77 / 86 40% 2 09.11.2027 -
Ivan Borges Defensores Active 90 / 96 40% 2 07.11.2027 -
Nazareno Roselli Defensa y Justicia Active 123 / 115 40% 1 07.11.2027 -
Emmanuel Ndubueze Shooting Stars Active 94 / 94 40% 1 04.11.2027 -
Alex Verón Vélez Active 114 / 123 40% 1 03.11.2027 -
Sebastián Muñoz GIF Sundsvall Active 90 / 91 40% 1 02.11.2027 -
Matias Siltanen Malmo FF Active 108 / 124 40% 2 29.10.2027 -
Mustapha Umar Kano Pillars Active 105 / 112 40% 1 28.10.2027 -
Daniel Idoko Ikorodu City Active 95 / 101 40% 1 28.10.2027 -
Giovanni Baroni Talleres Active 102 / 113 40% 2 22.10.2027 -
Jeremías Merlo Gimnasia La Plata Active 128 / 131 40% 2 21.10.2027 -
Juan Rodríguez Cerro Largo Active 103 / 89 40% 1 21.10.2027 -
Gideon Manaseh Ikorodu City Active 76 / 104 40% 2 20.10.2027 -
Olaniyi Saheed Kwara United Active 109 / 111 40% 1 20.10.2027 -
Joseph Abah Remo Stars Active 85 / 101 40% 1 16.10.2027 -
Abubakar Garba Nasarawa United Active 94 / 98 40% 1 16.10.2027 -
Nupe Godstime Bayelsa United Active 97 / 114 40% 1 13.10.2027 -
Nicolás Barros Schelotto Gimnasia La Plata Lost 114 / 122 40% 2 11.10.2027 -
Matías Canedo Rampla Juniors Active 90 / 101 40% 2 05.10.2027 -
Godswill Kenu Bayelsa United Active 63 / 87 40% 1 12.09.2027 -
Nicolás Blanco San Lorenzo Active 104 / 109 40% 2 09.09.2027 -
Hugo Rojas Instituto Active 97 / 105 40% 1 08.09.2027 -
Mohamed Bolivar Barranquilla Active 81 / 82 40% 1 06.09.2027 -
Román Gutiérrez Albion Active 79 / 93 58% 1 05.07.2027 -
Matías Kouyoumdjian Cerrito Active 90 / 85 58% 1 21.06.2027 -
Nahuel Galardi Maipú Active 112 / 115 40% 1 21.06.2027 -
Eliás Montiel Borussia Dortmund Active 125 / 140 40% 1 06.06.2027 -
Emanuele Scipioni Monopoli Active 110 / 114 40% 1 02.06.2027 -
Lukas Jensen Millwall Active 122 / 109 40% 1 31.05.2027 -
David Romero Parma Active 137 / 138 40% 3 30.05.2027 -
Mateus Mané Burnley Active 119 / 132 40% 1 25.05.2027 -
Ekain Orobengoa Real Sociedad Active 111 / 89 40% 1 24.05.2027 -
David Turnbull Cardiff City Active 114 / 128 40% 2 21.05.2027 -
Sam Greenwood Bristol City Active 128 / 130 40% 1 21.05.2027 -
Dylan Levitt Leyton Orient Active 99 / 117 40% 4 20.05.2027 -
Terry Devlin Portsmouth Active 131 / 129 40% 1 19.05.2027 -
Mees Rijks Bristol Rovers Active 122 / 106 40% 3 17.05.2027 -
Finn Azaz Southampton Active 141 / 113 40% 6 17.05.2027 -
Bobby Clark Derby County Active 121 / 110 40% 1 17.05.2027 -
Ilyas Ansah Hull City Active 125 / 138 40% 4 15.05.2027 -
Sam Bell Bristol City Active 124 / 136 40% 3 14.05.2027 -
Giorgi Chakvetadze Watford Active 143 / 125 40% 1 11.05.2027 -
Brooke Norton-Cuffy Hull City Active 151 / 127 40% 4 09.05.2027 -
Harry Clarke Preston Active 135 / 126 40% 1 08.05.2027 -
Jason Knight Bristol City Active 139 / 123 40% 3 07.05.2027 -
Job Ochieng Real Sociedad Active 105 / 123 40% 5 06.05.2027 -
Aidan Morris Middlesbrough Active 118 / 132 40% 2 06.05.2027 -
Ali Ahmed Norwich City Active 120 / 138 40% 2 05.05.2027 -
Calum Kavanagh Oldham Athletic Active 91 / 93 40% 3 05.05.2027 -
Welington Southampton Active 144 / 140 40% 1 05.05.2027 -
Martin Baturina Como Active 139 / 137 40% 2 02.05.2027 -
Othmane Maamma Watford Active 119 / 118 40% 2 02.05.2027 -
Dale Taylor Blackpool Active 116 / 116 40% 4 01.05.2027 -
Joe Gelhardt Hull City Active 128 / 150 40% 5 01.05.2027 -
Isaiah Jones Luton Town Active 117 / 137 40% 6 30.04.2027 -
Pontus Almqvist Parma Active 127 / 141 40% 1 28.04.2027 -
Francesco Petito Dolomiti Bellunesi Active 93 / 90 40% 1 28.04.2027 -
Mohamed-Ali Cho Hull City Active 141 / 126 40% 3 26.04.2027 -
Max Johnston Derby County Active 132 / 120 40% 2 26.04.2027 -
Josh Coburn Millwall Active 113 / 137 40% 3 21.04.2027 -
Scott Twine Bristol City Active 111 / 127 40% 2 14.04.2027 -
Joel Bagan Cardiff City Active 107 / 132 40% 1 13.04.2027 -
Giorgos Koutsias Famalicao Active 115 / 113 40% 1 13.04.2027 -
Tahith Chong Sheffield United Active 121 / 133 40% 1 11.04.2027 -
Dennis Cirkin Queens Park Rangers Active 118 / 142 40% 2 06.04.2027 -
Kwadwo Baah Watford Active 129 / 119 40% 1 30.03.2027 -
Adam Randell Bristol City Active 142 / 127 40% 1 27.03.2027 -
Giorgi Kvernadze Frosinone Active 109 / 114 40% 1 27.03.2027 -
Max Bird Birmingham Active 134 / 143 40% 1 25.03.2027 -
Berna CSKA 1948 Active 127 / 135 40% 1 21.03.2027 -
Darlvin Yeboah Bechem United Active 90 / 79 40% 1 21.03.2027 -
Milan van Ewijk Coventry City Active 142 / 112 40% 2 19.03.2027 -
Cian Ashford Cardiff City Active 136 / 135 40% 1 14.03.2027 -
Moses Twum Haras El Hodoud Active 87 / 114 40% 1 13.03.2027 -
Alfie Doughty Millwall Active 110 / 136 40% 1 13.03.2027 -
Filippo Distefano Empoli Active 115 / 99 40% 1 24.02.2027 -
Tomáš Rigo Stoke City Active 116 / 125 40% 1 23.02.2027 -
Alex Lowry Wycombe Wanderers Active 119 / 106 40% 1 21.02.2027 -
Gabriel Monjes Hamrun Spartans Active 70 / 104 40% 2 18.02.2027 -
Jack Diamond Stockport County Active 113 / 115 40% 2 18.02.2027 -
Darío Ramírez Real Sociedad Active 93 / 97 40% 1 11.02.2027 -
Danylo Honcharuk Probiy Active 94 / 82 40% 1 11.02.2027 -
Mohammed Essien Hasaacas Active 95 / 87 40% 1 07.02.2027 -
Joseph George Aigle Royal de Moungo Active 102 / 79 40% 1 06.02.2027 -
Jack Moylan Lincoln City Active 120 / 95 40% 1 03.02.2027 -
Xavier Amaechi Plymouth Argyle Active 109 / 106 40% 1 02.02.2027 -
Álex Centelles Levski Active 137 / 123 40% 1 02.02.2027 -
Armstrong Oko-Flex Levski Active 104 / 130 40% 3 31.01.2027 -
Christian Saydee Wigan Athletic Active 93 / 122 40% 2 31.01.2027 -
Marezi Portsmouth Active 119 / 124 40% 1 27.01.2027 -
Aidomo Emakhu Oxford United Active 101 / 109 40% 1 23.01.2027 -
Matija Frigan Parma Active 116 / 105 40% 1 19.01.2027 -
José Martínes CSKA 1948 Active 116 / 108 40% 2 16.01.2027 -
George Brown Sheffield Wednesday Active 86 / 103 40% 1 15.01.2027 -
Peter Itodo Metalist Active 117 / 131 40% 1 09.01.2027 -
Ar'jany Martha Rotherham United Active 93 / 126 40% 1 27.12.2026 -
Edu Expósito Espanyol Active 157 / 130 40% 4 14.12.2026 -
José Bernal Ethnikos Achnas Active 93 / 116 40% 2 01.12.2026 -
Sampson Dweh Mallorca Active 133 / 134 66% 1 01.12.2026 Approve
Antonio Salado Ospitaletto Active 115 / 114 40% 1 30.11.2026 -
Velemseni Ndwandwe Golden Arrows Active 95 / 123 40% 1 30.11.2026 -
Zach Hemming Chesterfield Active 105 / 109 40% 1 29.11.2026 -
Sławomir Abramowicz Jagiellonia Active 121 / 108 40% 1 28.11.2026 -
Killian Cahill Leyton Orient Active 82 / 100 40% 1 27.11.2026 -
Jordan Lotomba Bloemfontein Celtic Active 140 / 139 40% 3 25.11.2026 -
Lucas Souto Defensa y Justicia Active 116 / 134 40% 2 22.11.2026 -
Jáder Valencia Deportes Tolima Active 102 / 113 40% 2 21.11.2026 -
Patrick Schulte Columbus Crew Active 110 / 111 40% 3 20.11.2026 -
Lucas Lund Viborg Active 129 / 96 40% 1 20.11.2026 -
Alexis Steimbach Gimnasia La Plata Active 113 / 128 40% 2 18.11.2026 -
Bradley Zwane SuperSport United Active 111 / 126 40% 1 17.11.2026 -
Brian Orosco Godoy Cruz Active 128 / 127 40% 2 16.11.2026 -
Luke Southwood Bristol Rovers Active 102 / 120 40% 1 14.11.2026 -
Mariano Bracamonte Deportivo Riestra Active 125 / 115 40% 1 12.11.2026 -
Will Dennis Milton Keynes Dons Active 122 / 115 40% 1 12.11.2026 -
Alex Bass Peterborough United Active 98 / 122 40% 1 11.11.2026 -
Alex Palmer Ipswich Town Active 137 / 140 40% 1 09.11.2026 -
Omar Carabalí O'Higgins Active 119 / 105 40% 1 04.11.2026 -
Federico Martínez MFK Ruzomberok Active 121 / 117 40% 1 04.11.2026 -
Thomas Carrique Andorra Active 131 / 98 40% 1 03.11.2026 -
Oswin Appollis Orlando Pirates Active 138 / 112 40% 1 03.11.2026 -
Sipho Chaine Orlando Pirates Active 115 / 111 40% 3 02.11.2026 -
Viljar Myhra OB Active 97 / 110 40% 1 02.11.2026 -
Diego Enríquez Sporting Cristal Active 139 / 134 40% 2 01.11.2026 -
Sota Kitano Red Bull Salzburg Active 115 / 139 40% 2 30.10.2026 -
Lucas Cepeda Elche Active 136 / 121 40% 1 30.10.2026 -
Erik Botheim Viking Active 122 / 135 40% 1 30.10.2026 -
Jorge Gonzalez Viitorul Active 97 / 97 40% 1 24.10.2026 -
Facundo Mura Inter Miami CF Active 132 / 134 40% 1 22.10.2026 -
Jens Petter Hauge Bodo/Glimt Active 150 / 124 40% 1 21.10.2026 -
Angus Gunn San Jose Earthquakes Active 129 / 119 40% 1 19.10.2026 -
Adalberto Peñaranda Deportivo Tachira Active 119 / 124 40% 1 12.10.2026 -
Juan Cruz de los Santos Nacional Active 132 / 123 40% 1 11.10.2026 -
César Magallan Estudiantes de Merida Active 120 / 120 40% 1 11.10.2026 -
Tadeo Allende Inter Miami CF Active 131 / 111 40% 1 07.10.2026 -
Duncan McGuire Houston Dynamo Active 113 / 123 40% 1 07.10.2026 -
Dayne St. Clair Inter Miami CF Active 130 / 126 40% 1 06.10.2026 -
Gino Santilli Kalmar FF Active 127 / 133 40% 1 06.10.2026 -
Ángel González Libertad Active 113 / 109 40% 2 04.10.2026 -
Kévin Denkey FC Cincinnati Active 118 / 123 40% 1 03.10.2026 -
Renato Solís Sporting Cristal Active 111 / 133 40% 2 27.09.2026 -
Lucas Verza Olimpia Active 120 / 123 40% 1 27.09.2026 -
Tomás Ahumada Audax Italiano Active 95 / 121 40% 1 24.09.2026 -
Aldo Pérez Guarani Active 110 / 116 40% 1 23.09.2026 -
Luka Gavran Toronto FC Active 112 / 121 40% 1 23.09.2026 -
Esteban Obregón Montevideo City Torque Active 112 / 103 40% 1 23.09.2026 -
Diego Rossi Monterrey Active 124 / 125 40% 1 23.09.2026 -
Juninho Pumas UNAM Active 141 / 119 40% 1 22.09.2026 -
Nicolás Campisi Sportivo Luqueno Active 121 / 117 40% 2 19.09.2026 -
Duk Atlas Active 109 / 110 40% 3 17.09.2026 -
Héctor Holguín Morelia Active 100 / 115 40% 1 17.09.2026 -
Diego Romero Universitario Active 132 / 133 40% 1 14.09.2026 -
Lucas Di Yorio Santos Laguna Active 120 / 104 40% 1 13.09.2026 -
Mourad Tijuana Active 116 / 131 40% 2 12.09.2026 -
Genaro Rossi San Martín SJ Active 114 / 119 40% 1 12.09.2026 -
Carlos Moreno Pachuca Active 137 / 123 40% 2 10.09.2026 -
Nelson Espinoza Union La Calera Active 92 / 92 40% 1 08.09.2026 -
Miguel Silva Carabobo Active 96 / 111 40% 1 07.09.2026 -
Gonzalo Falcón Cienciano Active 108 / 104 40% 1 07.09.2026 -
Eric Ramírez Ankaragucu Active 114 / 92 40% 1 06.09.2026 -
Roberto de la Rosa Monterrey Active 130 / 115 40% 1 02.09.2026 -
Santiago González Sporting Cristal Active 115 / 129 40% 2 01.09.2026 -
Kelvin Flórez Deportes Tolima Active 111 / 123 40% 1 31.08.2026 -
Jonatan Torres Cerro Porteno Active 111 / 118 40% 1 31.08.2026 -
Germán Berterame Inter Miami CF Active 128 / 133 40% 1 28.08.2026 -
Ismael Díaz Leon Active 135 / 131 40% 1 27.08.2026 -
Adolfo Muñoz UTC Active 114 / 110 40% 1 26.08.2026 -
Ramiro Ruiz Rodríguez Atlético Tucumán Active 125 / 129 40% 1 24.08.2026 -
Rodrigo Pollero Deportivo Tachira Active 104 / 98 40% 1 23.08.2026 -
Brayan Moreno Santa Fe Active 100 / 102 40% 1 22.08.2026 -
Marcus Vinicius Deportivo Pereira Active 101 / 102 40% 1 22.08.2026 -
Michael Vadulli Audax Italiano Active 115 / 111 40% 1 18.08.2026 -
Alberto Ocejo Santos Laguna Active 94 / 109 40% 1 17.08.2026 -
Adrián Parra Deportes Tolima Active 108 / 113 40% 1 15.08.2026 -
Gustavo Aguilar Libertad Active 118 / 106 40% 1 12.08.2026 -
Luis Ingolotti Atlético Tucumán Active 118 / 131 40% 1 08.08.2026 -
Williams Barlasina Fortaleza CEIF Active 119 / 120 40% 1 05.08.2026 -
Luca Zidane Leganés Active 141 / 138 40% 1 02.08.2026 -
Mauro Silveira Junior Active 105 / 121 40% 1 01.08.2026 -
Nicolás Sumavil Platense Active 118 / 115 40% 1 01.08.2026 -